createdAt,value
2019-02-20T00:01:06.378Z,3.64
2019-02-20T00:03:34.887Z,3.61
2019-02-20T00:06:04.680Z,3.62
2019-02-20T00:08:33.307Z,3.70
2019-02-20T00:11:01.929Z,3.68
2019-02-20T00:13:30.447Z,3.58
2019-02-20T00:15:58.933Z,3.48
2019-02-20T00:18:27.558Z,3.44
2019-02-20T00:20:56.239Z,3.48
2019-02-20T00:23:24.785Z,3.38
2019-02-20T00:25:53.429Z,3.46
2019-02-20T00:28:22.066Z,3.37
2019-02-20T00:30:50.731Z,3.53
2019-02-20T00:33:19.341Z,3.64
2019-02-20T00:35:48.116Z,3.63
2019-02-20T00:38:16.677Z,3.44
2019-02-20T00:40:45.311Z,3.46
2019-02-20T00:43:14.138Z,3.45
2019-02-20T00:45:44.398Z,3.50
2019-02-20T00:48:26.634Z,3.45
2019-02-20T00:50:59.765Z,3.37
2019-02-20T00:53:33.031Z,3.19
2019-02-20T00:56:01.641Z,3.10
2019-02-20T00:58:30.121Z,3.13
2019-02-20T01:00:58.656Z,3.18
2019-02-20T01:03:27.264Z,3.20
2019-02-20T01:05:55.832Z,3.13
2019-02-20T01:08:24.777Z,3.07
2019-02-20T01:10:53.428Z,3.10
2019-02-20T01:13:21.908Z,3.16
2019-02-20T01:15:50.438Z,3.09
2019-02-20T01:18:19.068Z,3.06
2019-02-20T01:20:47.779Z,2.97
2019-02-20T01:23:16.484Z,2.90
2019-02-20T01:25:44.977Z,2.99
2019-02-20T01:28:13.607Z,3.01
2019-02-20T01:30:42.548Z,3.00
2019-02-20T01:33:11.036Z,2.94
2019-02-20T01:35:39.530Z,2.85
2019-02-20T01:38:09.195Z,2.72
2019-02-20T01:40:37.825Z,2.65
2019-02-20T01:43:06.433Z,2.55
2019-02-20T01:45:35.096Z,2.47
2019-02-20T01:48:03.658Z,2.50
2019-02-20T01:50:32.142Z,2.48
2019-02-20T01:53:10.087Z,2.41
2019-02-20T01:55:31.170Z,2.41
2019-02-20T01:57:59.729Z,2.36
2019-02-20T02:00:28.529Z,2.33
2019-02-20T02:02:57.170Z,2.31
2019-02-20T02:05:25.801Z,2.28
2019-02-20T02:07:54.414Z,2.27
2019-02-20T02:10:23.048Z,2.22
2019-02-20T02:12:51.674Z,2.26
2019-02-20T02:15:20.850Z,2.27
2019-02-20T02:17:52.284Z,2.25
2019-02-20T02:20:20.766Z,2.25
2019-02-20T02:22:49.416Z,2.18
2019-02-20T02:25:18.002Z,2.17
2019-02-20T02:27:46.625Z,2.10
2019-02-20T02:30:15.341Z,2.24
2019-02-20T02:32:44.017Z,2.35
2019-02-20T02:35:12.580Z,2.36
2019-02-20T02:37:41.225Z,2.36
2019-02-20T02:40:09.869Z,2.33
2019-02-20T02:42:38.388Z,2.28
2019-02-20T02:45:07.352Z,2.15
2019-02-20T02:47:36.011Z,2.01
2019-02-20T02:50:06.042Z,2.04
2019-02-20T02:52:34.526Z,1.98
2019-02-20T02:55:03.117Z,1.89
2019-02-20T02:57:31.746Z,1.73
2019-02-20T03:00:00.436Z,1.64
2019-02-20T03:02:28.958Z,1.72
2019-02-20T03:04:57.592Z,1.66
2019-02-20T03:07:26.169Z,1.73
2019-02-20T03:09:54.886Z,1.80
2019-02-20T03:12:23.516Z,1.71
2019-02-20T03:14:52.136Z,1.82
2019-02-20T03:17:20.721Z,1.83
2019-02-20T03:19:49.279Z,1.84
2019-02-20T03:22:17.925Z,1.89
2019-02-20T03:24:46.661Z,1.77
2019-02-20T03:27:15.163Z,1.68
2019-02-20T03:29:43.719Z,1.62
2019-02-20T03:32:12.440Z,1.57
2019-02-20T03:34:41.065Z,1.59
2019-02-20T03:37:09.583Z,1.63
2019-02-20T03:39:54.197Z,1.57
2019-02-20T03:42:22.873Z,1.57
2019-02-20T03:44:51.365Z,1.56
2019-02-20T03:47:20.331Z,1.49
2019-02-20T03:49:49.042Z,1.31
2019-02-20T03:52:17.603Z,1.20
2019-02-20T03:54:46.162Z,1.15
2019-02-20T03:57:15.050Z,1.12
2019-02-20T03:59:43.691Z,1.13
2019-02-20T04:02:12.292Z,1.16
2019-02-20T04:04:40.810Z,1.15
2019-02-20T04:07:09.442Z,1.20
2019-02-20T04:09:38.074Z,1.24
2019-02-20T04:12:12.066Z,1.28
2019-02-20T04:14:40.686Z,1.20
2019-02-20T04:17:09.322Z,1.18
2019-02-20T04:19:37.962Z,1.21
2019-02-20T04:22:06.450Z,1.22
2019-02-20T04:24:35.000Z,1.28
2019-02-20T04:27:03.643Z,1.43
2019-02-20T04:29:32.359Z,1.55
2019-02-20T04:32:00.893Z,1.30
2019-02-20T04:34:29.445Z,1.10
2019-02-20T04:36:58.076Z,0.97
2019-02-20T04:39:26.736Z,0.99
2019-02-20T04:41:55.298Z,1.00
2019-02-20T04:44:23.786Z,0.93
2019-02-20T04:46:52.406Z,0.85
2019-02-20T04:49:21.053Z,0.75
2019-02-20T04:51:49.694Z,0.68
2019-02-20T04:54:18.369Z,0.72
2019-02-20T04:56:47.060Z,0.70
2019-02-20T04:59:15.694Z,0.73
2019-02-20T05:01:44.460Z,0.77
2019-02-20T05:04:13.084Z,0.65
2019-02-20T05:06:41.638Z,0.64
2019-02-20T05:09:10.313Z,0.73
2019-02-20T05:11:38.937Z,0.87
2019-02-20T05:14:07.580Z,0.88
2019-02-20T05:16:36.373Z,0.92
2019-02-20T05:19:04.926Z,0.92
2019-02-20T05:21:33.577Z,0.93
2019-02-20T05:24:02.230Z,0.91
2019-02-20T05:26:30.722Z,0.86
2019-02-20T05:29:02.003Z,0.90
2019-02-20T05:31:30.657Z,0.86
2019-02-20T05:33:59.291Z,1.00
2019-02-20T05:36:27.862Z,1.13
2019-02-20T05:38:56.592Z,1.51
2019-02-20T05:41:25.208Z,1.83
2019-02-20T05:43:53.707Z,2.23
2019-02-20T05:46:22.392Z,2.67
2019-02-20T05:48:51.010Z,3.19
2019-02-20T05:51:19.571Z,3.64
2019-02-20T05:53:48.266Z,4.04
2019-02-20T05:56:16.922Z,4.36
2019-02-20T05:58:45.559Z,4.58
2019-02-20T06:01:14.087Z,4.68
2019-02-20T06:03:42.593Z,4.98
2019-02-20T06:06:11.210Z,5.51
2019-02-20T06:08:39.878Z,5.95
2019-02-20T06:11:14.628Z,6.50
2019-02-20T06:13:38.729Z,6.90
2019-02-20T06:16:07.413Z,7.02
2019-02-20T06:18:36.046Z,7.15
2019-02-20T06:21:04.637Z,7.60
2019-02-20T06:23:33.289Z,7.76
2019-02-20T06:26:01.776Z,8.02
2019-02-20T06:28:30.272Z,8.24
2019-02-20T06:30:58.987Z,8.15
2019-02-20T06:33:27.631Z,7.99
2019-02-20T06:35:56.202Z,8.18
2019-02-20T06:38:24.928Z,8.55
2019-02-20T06:40:53.553Z,8.84
2019-02-20T06:43:22.174Z,9.01
2019-02-20T06:45:53.439Z,9.04
2019-02-20T06:48:21.926Z,9.48
2019-02-20T06:50:50.619Z,9.76
2019-02-20T06:53:19.400Z,10.28
2019-02-20T06:55:47.908Z,10.41
2019-02-20T06:58:16.448Z,10.89
2019-02-20T07:00:45.508Z,10.70
2019-02-20T07:03:14.140Z,11.05
2019-02-20T07:05:42.720Z,10.97
2019-02-20T07:08:14.302Z,10.56
2019-02-20T07:11:11.305Z,10.72
2019-02-20T07:13:54.794Z,11.04
2019-02-20T07:16:57.929Z,11.05
2019-02-20T07:19:41.572Z,10.77
2019-02-20T07:22:29.766Z,11.02
2019-02-20T07:25:03.345Z,10.26
2019-02-20T07:27:59.787Z,10.86
2019-02-20T07:30:28.391Z,11.00
2019-02-20T07:32:57.027Z,10.86
2019-02-20T07:35:25.671Z,10.78
2019-02-20T07:37:54.218Z,10.39
2019-02-20T07:40:22.803Z,10.89
2019-02-20T07:42:51.440Z,10.73
2019-02-20T07:45:19.962Z,10.49
2019-02-20T07:47:48.608Z,10.97
2019-02-20T07:50:17.440Z,11.04
2019-02-20T07:52:46.118Z,10.87
2019-02-20T07:55:14.757Z,10.82
2019-02-20T07:57:43.455Z,10.86
2019-02-20T08:00:14.465Z,11.45
2019-02-20T08:02:43.032Z,11.54
2019-02-20T08:05:11.782Z,11.33
2019-02-20T08:07:40.679Z,11.27
2019-02-20T08:10:11.200Z,10.36
2019-02-20T08:12:39.698Z,10.90
2019-02-20T08:15:10.557Z,11.27
2019-02-20T08:17:39.178Z,11.54
2019-02-20T08:20:09.805Z,11.51
2019-02-20T08:22:38.422Z,11.21
2019-02-20T08:25:07.753Z,11.51
2019-02-20T08:27:36.452Z,11.42
2019-02-20T08:30:08.429Z,11.41
2019-02-20T08:32:37.100Z,11.43
2019-02-20T08:35:07.628Z,11.49
2019-02-20T08:37:36.295Z,11.34
2019-02-20T08:40:07.569Z,11.50
2019-02-20T08:42:36.222Z,11.43
2019-02-20T08:45:05.953Z,10.85
2019-02-20T08:47:34.507Z,11.09
2019-02-20T08:50:02.992Z,11.21
2019-02-20T08:52:31.667Z,11.26
2019-02-20T08:55:00.352Z,10.50
2019-02-20T08:57:28.880Z,10.47
2019-02-20T08:59:57.387Z,10.54
2019-02-20T09:02:26.098Z,10.41
2019-02-20T09:04:54.896Z,10.29
2019-02-20T09:07:23.569Z,10.28
2019-02-20T09:09:52.247Z,10.15
2019-02-20T09:12:20.741Z,9.88
2019-02-20T09:14:49.242Z,10.02
2019-02-20T09:17:17.881Z,10.12
2019-02-20T09:19:46.526Z,9.98
2019-02-20T09:22:15.110Z,10.01
2019-02-20T09:24:43.598Z,10.05
2019-02-20T09:27:12.225Z,10.18
2019-02-20T09:29:40.906Z,10.29
2019-02-20T09:32:09.470Z,10.33
2019-02-20T09:34:38.035Z,10.47
2019-02-20T09:37:06.706Z,10.62
2019-02-20T09:39:36.849Z,10.67
2019-02-20T09:42:07.003Z,10.79
2019-02-20T09:44:38.731Z,10.91
2019-02-20T09:47:07.352Z,11.04
2019-02-20T09:49:35.983Z,10.98
2019-02-20T09:52:04.543Z,11.17
2019-02-20T09:54:33.025Z,11.40
2019-02-20T09:57:01.772Z,11.67
2019-02-20T09:59:30.382Z,11.80
2019-02-20T10:01:58.924Z,12.03
2019-02-20T10:04:27.527Z,12.26
2019-02-20T10:06:56.161Z,12.35
2019-02-20T10:09:24.799Z,12.45
2019-02-20T10:11:53.453Z,12.65
2019-02-20T10:14:22.031Z,12.56
2019-02-20T10:16:50.662Z,12.39
2019-02-20T10:19:19.506Z,12.41
2019-02-20T10:21:48.015Z,12.42
2019-02-20T10:24:16.661Z,12.57
2019-02-20T10:26:45.253Z,12.69
2019-02-20T10:29:13.756Z,12.66
2019-02-20T10:31:42.384Z,12.68
2019-02-20T10:34:11.319Z,12.61
2019-02-20T10:36:39.837Z,12.70
2019-02-20T10:39:08.321Z,12.63
2019-02-20T10:41:36.990Z,12.54
2019-02-20T10:44:05.632Z,12.69
2019-02-20T10:46:40.186Z,12.84
2019-02-20T10:49:08.847Z,12.96
2019-02-20T10:51:37.482Z,13.23
2019-02-20T10:54:06.111Z,13.19
2019-02-20T10:56:34.699Z,13.07
2019-02-20T10:59:03.327Z,12.80
2019-02-20T11:01:31.963Z,12.91
2019-02-20T11:04:00.646Z,13.06
2019-02-20T11:06:29.309Z,13.07
2019-02-20T11:08:57.948Z,13.04
2019-02-20T11:11:26.474Z,12.96
2019-02-20T11:13:55.034Z,12.93
2019-02-20T11:16:23.668Z,12.93
2019-02-20T11:18:52.325Z,12.98
2019-02-20T11:21:20.890Z,13.08
2019-02-20T11:23:49.455Z,13.14
2019-02-20T11:26:18.781Z,13.22
2019-02-20T11:28:47.516Z,13.35
2019-02-20T11:31:16.014Z,13.34
2019-02-20T11:33:44.610Z,13.33
2019-02-20T11:36:13.240Z,13.37
2019-02-20T11:38:41.892Z,13.30
2019-02-20T11:41:10.563Z,13.26
2019-02-20T11:43:39.194Z,13.34
2019-02-20T11:46:07.780Z,13.36
2019-02-20T11:48:36.267Z,13.34
2019-02-20T11:51:04.887Z,13.47
2019-02-20T11:53:37.186Z,13.27
2019-02-20T11:56:03.847Z,13.19
2019-02-20T11:58:32.334Z,13.21
2019-02-20T12:01:01.034Z,13.31
2019-02-20T12:03:29.819Z,13.42
2019-02-20T12:05:58.309Z,13.55
2019-02-20T12:08:26.789Z,13.49
2019-02-20T12:10:55.458Z,13.55
2019-02-20T12:13:24.092Z,13.57
2019-02-20T12:15:52.653Z,13.45
2019-02-20T12:18:21.183Z,13.47
2019-02-20T12:20:49.807Z,13.35
2019-02-20T12:23:18.363Z,13.55
2019-02-20T12:25:47.276Z,13.44
2019-02-20T12:28:15.925Z,13.47
2019-02-20T12:30:44.474Z,13.58
2019-02-20T12:33:13.632Z,13.52
2019-02-20T12:35:42.365Z,13.58
2019-02-20T12:38:11.168Z,13.52
2019-02-20T12:40:39.764Z,13.43
2019-02-20T12:43:08.324Z,13.54
2019-02-20T12:45:36.953Z,13.66
2019-02-20T12:48:05.577Z,13.59
2019-02-20T12:50:34.157Z,13.58
2019-02-20T12:53:02.677Z,13.60
2019-02-20T12:55:31.300Z,13.77
2019-02-20T12:58:00.022Z,13.71
2019-02-20T13:00:28.789Z,13.65
2019-02-20T13:02:57.509Z,13.58
2019-02-20T13:05:26.078Z,13.45
2019-02-20T13:07:54.671Z,13.40
2019-02-20T13:10:23.303Z,13.45
2019-02-20T13:12:51.933Z,13.44
2019-02-20T13:15:20.675Z,13.56
2019-02-20T13:17:49.224Z,13.71
2019-02-20T13:20:17.861Z,13.67
2019-02-20T13:22:46.721Z,13.48
2019-02-20T13:25:15.347Z,13.42
2019-02-20T13:27:43.952Z,13.42
2019-02-20T13:30:14.318Z,13.45
2019-02-20T13:32:43.536Z,13.39
2019-02-20T13:35:12.259Z,13.48
2019-02-20T13:37:40.784Z,13.59
2019-02-20T13:40:11.011Z,13.55
2019-02-20T13:42:39.502Z,13.48
2019-02-20T13:45:09.180Z,13.51
2019-02-20T13:47:37.821Z,13.49
2019-02-20T13:50:08.857Z,13.32
2019-02-20T13:52:37.521Z,13.47
2019-02-20T13:55:06.461Z,13.43
2019-02-20T13:57:35.166Z,13.39
2019-02-20T14:00:04.028Z,13.46
2019-02-20T14:02:32.606Z,13.52
2019-02-20T14:05:01.303Z,13.38
2019-02-20T14:07:30.213Z,13.42
2019-02-20T14:09:58.985Z,13.36
2019-02-20T14:12:27.542Z,13.39
2019-02-20T14:14:56.218Z,13.28
2019-02-20T14:17:26.888Z,13.18
2019-02-20T14:19:55.149Z,13.09
2019-02-20T14:22:24.081Z,13.03
2019-02-20T14:24:52.594Z,13.05
2019-02-20T14:27:21.248Z,13.06
2019-02-20T14:29:49.924Z,13.05
2019-02-20T14:32:18.589Z,12.83
2019-02-20T14:34:47.082Z,12.80
2019-02-20T14:37:15.605Z,12.76
2019-02-20T14:39:44.243Z,12.74
2019-02-20T14:42:13.257Z,12.66
2019-02-20T14:44:41.800Z,12.58
2019-02-20T14:47:10.488Z,12.47
2019-02-20T14:49:39.126Z,12.41
2019-02-20T14:52:07.972Z,12.38
2019-02-20T14:54:36.460Z,12.39
2019-02-20T14:57:05.100Z,12.44
2019-02-20T14:59:34.182Z,12.31
2019-02-20T15:02:02.809Z,12.24
2019-02-20T15:04:31.299Z,12.29
2019-02-20T15:06:59.897Z,12.17
2019-02-20T15:09:28.521Z,12.08
2019-02-20T15:11:57.162Z,12.06
2019-02-20T15:14:26.374Z,11.91
2019-02-20T15:16:54.934Z,11.91
2019-02-20T15:19:23.559Z,11.81
2019-02-20T15:21:52.234Z,11.78
2019-02-20T15:24:20.819Z,11.66
2019-02-20T15:26:49.391Z,11.63
2019-02-20T15:29:18.086Z,11.57
2019-02-20T15:31:46.925Z,11.48
2019-02-20T15:34:15.513Z,11.41
2019-02-20T15:36:44.047Z,11.34
2019-02-20T15:39:12.698Z,11.27
2019-02-20T15:41:41.299Z,11.28
2019-02-20T15:44:09.984Z,11.21
2019-02-20T15:46:38.612Z,11.13
2019-02-20T15:49:07.455Z,11.05
2019-02-20T15:51:36.371Z,11.02
2019-02-20T15:54:05.036Z,10.92
2019-02-20T15:56:33.684Z,10.89
2019-02-20T15:59:02.308Z,10.82
2019-02-20T16:01:30.884Z,10.84
2019-02-20T16:03:59.538Z,10.77
2019-02-20T16:06:28.187Z,10.73
2019-02-20T16:08:56.687Z,10.71
2019-02-20T16:11:25.251Z,10.62
2019-02-20T16:13:54.190Z,10.62
2019-02-20T16:16:22.817Z,10.48
2019-02-20T16:18:51.472Z,10.37
2019-02-20T16:21:20.430Z,10.34
2019-02-20T16:23:48.930Z,10.25
2019-02-20T16:26:17.493Z,10.18
2019-02-20T16:28:46.176Z,10.11
2019-02-20T16:31:14.813Z,10.04
2019-02-20T16:33:43.467Z,10.02
2019-02-20T16:36:12.051Z,10.00
2019-02-20T16:38:40.948Z,9.91
2019-02-20T16:41:09.579Z,9.86
2019-02-20T16:43:38.190Z,9.74
2019-02-20T16:46:06.824Z,9.72
2019-02-20T16:48:35.440Z,9.64
2019-02-20T16:51:04.114Z,9.57
2019-02-20T16:53:32.675Z,9.51
2019-02-20T16:56:01.413Z,9.49
2019-02-20T16:58:30.324Z,9.38
2019-02-20T17:00:59.031Z,9.33
2019-02-20T17:03:27.668Z,9.37
2019-02-20T17:05:56.347Z,9.33
2019-02-20T17:08:24.897Z,9.29
2019-02-20T17:10:53.993Z,9.22
2019-02-20T17:13:22.838Z,9.13
2019-02-20T17:15:51.786Z,9.09
2019-02-20T17:18:20.337Z,9.08
2019-02-20T17:20:49.101Z,9.02
2019-02-20T17:23:17.741Z,8.97
2019-02-20T17:25:46.381Z,8.91
2019-02-20T17:28:15.659Z,8.98
2019-02-20T17:30:44.282Z,8.94
2019-02-20T17:33:12.910Z,8.84
2019-02-20T17:35:41.579Z,8.77
2019-02-20T17:38:10.210Z,8.72
2019-02-20T17:40:38.846Z,8.71
2019-02-20T17:43:07.961Z,8.62
2019-02-20T17:45:36.454Z,8.60
2019-02-20T17:48:05.106Z,8.51
2019-02-20T17:50:33.766Z,8.46
2019-02-20T17:53:02.398Z,8.47
2019-02-20T17:55:31.045Z,8.40
2019-02-20T17:57:59.882Z,8.30
2019-02-20T18:00:32.407Z,8.25
2019-02-20T18:03:01.045Z,8.22
2019-02-20T18:05:29.639Z,8.17
2019-02-20T18:07:58.257Z,8.15
2019-02-20T18:10:26.877Z,8.17
2019-02-20T18:12:55.494Z,8.11
2019-02-20T18:15:24.052Z,8.07
2019-02-20T18:17:52.686Z,8.10
2019-02-20T18:20:21.291Z,8.04
2019-02-20T18:22:49.942Z,8.00
2019-02-20T18:25:18.575Z,7.92
2019-02-20T18:27:47.178Z,7.90
2019-02-20T18:30:16.609Z,7.94
2019-02-20T18:32:45.326Z,7.93
2019-02-20T18:35:18.737Z,7.91
2019-02-20T18:37:47.392Z,7.87
2019-02-20T18:40:17.146Z,7.84
2019-02-20T18:42:45.991Z,7.79
2019-02-20T18:45:15.715Z,7.76
2019-02-20T18:47:44.468Z,7.73
2019-02-20T18:50:14.435Z,7.71
2019-02-20T18:52:43.055Z,7.65
2019-02-20T18:55:13.283Z,7.63
2019-02-20T18:57:42.075Z,7.63
2019-02-20T19:00:18.995Z,7.64
2019-02-20T19:02:47.670Z,7.59
2019-02-20T19:05:18.723Z,7.55
2019-02-20T19:07:46.751Z,7.65
2019-02-20T19:10:36.818Z,7.56
2019-02-20T19:13:38.191Z,7.51
2019-02-20T19:16:15.764Z,7.47
2019-02-20T19:19:02.366Z,7.48
2019-02-20T19:21:47.800Z,7.41
2019-02-20T19:24:22.361Z,7.38
2019-02-20T19:27:02.552Z,7.38
2019-02-20T19:29:34.078Z,7.38
2019-02-20T19:32:28.374Z,7.34
2019-02-20T19:35:16.346Z,7.35
2019-02-20T19:38:09.596Z,7.33
2019-02-20T19:41:13.163Z,7.35
2019-02-20T19:43:50.688Z,7.28
2019-02-20T19:46:50.970Z,7.25
2019-02-20T19:49:25.210Z,7.17
2019-02-20T19:52:19.616Z,7.14
2019-02-20T19:54:56.728Z,7.12
2019-02-20T19:57:36.902Z,7.15
2019-02-20T20:00:32.192Z,7.11
2019-02-20T20:03:29.608Z,7.04
2019-02-20T20:06:09.901Z,7.02
2019-02-20T20:08:41.464Z,6.95
2019-02-20T20:11:31.188Z,6.88
2019-02-20T20:14:34.964Z,6.89
2019-02-20T20:17:14.936Z,6.91
2019-02-20T20:20:01.482Z,6.87
2019-02-20T20:22:41.524Z,6.87
2019-02-20T20:25:19.046Z,6.87
2019-02-20T20:27:53.849Z,6.87
2019-02-20T20:30:42.147Z,6.91
2019-02-20T20:33:39.356Z,6.92
2019-02-20T20:36:16.884Z,6.92
2019-02-20T20:39:00.431Z,6.98
2019-02-20T20:41:37.661Z,6.94
2019-02-20T20:44:44.069Z,6.97
2019-02-20T20:47:47.314Z,6.96
2019-02-20T20:50:44.435Z,6.96
2019-02-20T20:53:24.782Z,6.99
2019-02-20T20:56:08.539Z,7.05
2019-02-20T20:58:40.088Z,7.10
2019-02-20T21:01:26.649Z,7.15
2019-02-20T21:04:20.432Z,7.13
2019-02-20T21:07:14.400Z,7.13
2019-02-20T21:09:55.197Z,7.19
2019-02-20T21:12:38.844Z,7.26
2019-02-20T21:15:19.646Z,7.36
2019-02-20T21:17:53.965Z,7.30
2019-02-20T21:20:44.033Z,7.37
2019-02-20T21:23:21.577Z,7.38
2019-02-20T21:26:05.656Z,7.36
2019-02-20T21:28:49.104Z,7.34
2019-02-20T21:31:37.410Z,7.37
2019-02-20T21:34:14.590Z,7.41
2019-02-20T21:36:46.167Z,7.44
2019-02-20T21:39:17.715Z,7.48
2019-02-20T21:41:58.612Z,7.58
2019-02-20T21:44:42.500Z,7.46
2019-02-20T21:47:40.110Z,7.52
2019-02-20T21:50:17.310Z,7.48
2019-02-20T21:52:54.920Z,7.49
2019-02-20T21:55:35.118Z,7.54
2019-02-20T21:58:18.755Z,7.43
2019-02-20T22:01:12.963Z,7.51
2019-02-20T22:04:02.721Z,7.47
2019-02-20T22:06:53.276Z,7.53
2019-02-20T22:09:42.985Z,7.58
2019-02-20T22:12:19.793Z,7.52
2019-02-20T22:15:12.052Z,7.55
2019-02-20T22:17:43.598Z,7.56
2019-02-20T22:20:18.011Z,7.50
2019-02-20T22:23:07.870Z,7.50
2019-02-20T22:25:57.099Z,7.55
2019-02-20T22:28:43.487Z,7.60
2019-02-20T22:31:39.377Z,7.57
2019-02-20T22:34:29.233Z,7.60
2019-02-20T22:37:03.977Z,7.56
2019-02-20T22:39:55.158Z,7.52
2019-02-20T22:42:26.792Z,7.52
2019-02-20T22:45:09.776Z,7.43
2019-02-20T22:47:57.687Z,7.46
2019-02-20T22:51:04.414Z,7.49
2019-02-20T22:53:41.704Z,7.47
2019-02-20T22:56:16.154Z,7.42
2019-02-20T22:58:50.363Z,7.41
2019-02-20T23:01:30.840Z,7.40
2019-02-20T23:04:02.417Z,7.40
2019-02-20T23:07:01.281Z,7.46
2019-02-20T23:09:44.954Z,7.45
2019-02-20T23:12:39.293Z,7.40
2019-02-20T23:15:07.889Z,7.45
2019-02-20T23:17:36.442Z,7.45
2019-02-20T23:20:07.668Z,7.47
2019-02-20T23:22:36.189Z,7.44
2019-02-20T23:25:06.016Z,7.48
2019-02-20T23:27:34.732Z,7.44
2019-02-20T23:30:12.555Z,7.45
2019-02-20T23:32:33.966Z,7.41
2019-02-20T23:35:02.701Z,7.41
2019-02-20T23:37:31.616Z,7.40
2019-02-20T23:40:00.307Z,7.45
2019-02-20T23:42:28.882Z,7.42
2019-02-20T23:44:57.544Z,7.39
2019-02-20T23:47:26.177Z,7.39
2019-02-20T23:49:56.547Z,7.38
2019-02-20T23:52:25.141Z,7.42
2019-02-20T23:54:53.776Z,7.44
2019-02-20T23:57:22.259Z,7.39
2019-02-20T23:59:50.808Z,7.40
